Time;durP1;ratioP1;P1;durP2;ratioP2;P2;SDS_P1;SDS_P2;PMS_P1;PMS_P2;Temp;Humidity;BMP_temperature;BMP_pressure;BME280_temperature;BME280_humidity;BME280_pressure;Samples;Min_cycle;Max_cycle;Signal;HPM_P1;HPM_P2
2022/06/02 00:01:11;;;;;;;7.15;5.63;;;;;;;11.75;67.72;101903.91;5054968;28;20370;-62
2022/06/02 00:03:48;;;;;;;6.07;5.20;;;;;;;11.57;68.55;101902.59;5054847;28;20038;-61
2022/06/02 00:06:33;;;;;;;7.00;5.65;;;;;;;11.35;69.28;101906.44;5055052;28;20044;-61
2022/06/02 00:09:16;;;;;;;8.88;5.57;;;;;;;11.26;69.26;101905.38;5054818;28;20037;-61
2022/06/02 00:11:59;;;;;;;6.43;5.40;;;;;;;11.18;69.50;101911.34;5054811;28;20029;-61
2022/06/02 00:15:09;;;;;;;7.95;5.40;;;;;;;11.15;68.71;101911.25;5054773;28;20063;-62
2022/06/02 00:17:47;;;;;;;8.15;5.22;;;;;;;11.07;69.60;101919.00;5054560;28;20515;-61
2022/06/02 00:20:20;;;;;;;12.68;5.70;;;;;;;11.00;69.92;101914.38;5054667;28;20039;-61
2022/06/02 00:22:48;;;;;;;7.00;5.60;;;;;;;10.97;70.28;101917.88;5054806;28;20061;-61
2022/06/02 00:25:42;;;;;;;8.65;5.78;;;;;;;11.04;69.57;101918.91;5054557;28;20036;-62
2022/06/02 00:28:26;;;;;;;7.15;5.65;;;;;;;11.21;68.89;101916.69;5054349;28;20454;-61
2022/06/02 00:31:21;;;;;;;6.13;5.10;;;;;;;11.27;67.87;101917.75;5054198;28;20060;-62
2022/06/02 00:33:59;;;;;;;6.20;5.50;;;;;;;11.22;68.18;101916.75;5054412;28;20543;-61
2022/06/02 00:36:31;;;;;;;8.73;5.93;;;;;;;11.23;68.42;101923.81;5054393;28;20433;-61
2022/06/02 00:39:03;;;;;;;9.65;5.65;;;;;;;11.22;68.29;101921.13;5054202;28;20020;-61
2022/06/02 00:41:54;;;;;;;7.10;5.65;;;;;;;11.21;67.94;101916.69;5053914;28;20417;-62
2022/06/02 00:44:41;;;;;;;7.32;5.57;;;;;;;11.15;67.90;101916.56;5054319;28;20039;-61
2022/06/02 00:47:28;;;;;;;7.78;5.47;;;;;;;11.06;68.54;101919.84;5054077;28;20394;-61
2022/06/02 00:50:10;;;;;;;6.68;5.43;;;;;;;11.12;68.53;101916.47;5054124;28;20057;-61
2022/06/02 00:53:03;;;;;;;7.28;5.47;;;;;;;11.12;68.17;101912.06;5053069;28;20025;-61
2022/06/02 00:59:29;;;;;;;6.57;5.50;;;;;;;11.02;67.85;101920.63;4992711;28;20030;-61
2022/06/02 01:01:55;;;;;;;6.97;5.47;;;;;;;10.91;68.55;101922.09;4992600;28;20038;-62
2022/06/02 01:04:21;;;;;;;7.55;5.90;;;;;;;10.78;68.98;101924.38;5036405;28;20044;-62
2022/06/02 01:07:03;;;;;;;7.18;5.60;;;;;;;10.72;69.19;101918.94;5053698;28;20029;-61
2022/06/02 01:09:47;;;;;;;6.60;5.43;;;;;;;10.59;69.91;101926.50;5053595;28;20029;-61
2022/06/02 01:12:12;;;;;;;7.63;5.72;;;;;;;10.45;70.51;101924.38;5053675;28;20043;-62
2022/06/02 01:14:56;;;;;;;6.85;5.45;;;;;;;10.35;71.05;101926.69;5053645;28;20103;-61
2022/06/02 01:17:40;;;;;;;10.68;5.82;;;;;;;10.28;71.51;101923.00;5053582;28;20466;-62
2022/06/02 01:20:18;;;;;;;12.45;6.10;;;;;;;10.38;71.25;101921.50;5053488;28;20025;-62
2022/06/02 01:23:00;;;;;;;7.95;5.82;;;;;;;10.51;70.58;101916.59;5053487;28;20036;-61
2022/06/02 01:25:56;;;;;;;9.30;6.22;;;;;;;10.58;69.29;101922.97;5053273;28;20025;-62
2022/06/02 01:28:37;;;;;;;7.93;5.93;;;;;;;10.48;69.67;101916.50;5053252;28;20508;-61
2022/06/02 01:31:36;;;;;;;8.98;6.10;;;;;;;10.46;69.75;101923.50;5053377;28;20029;-61
2022/06/02 01:34:01;;;;;;;6.60;5.57;;;;;;;10.42;69.67;101918.09;5053154;28;20029;-61
2022/06/02 01:36:58;;;;;;;7.38;5.57;;;;;;;10.44;69.41;101921.66;5053338;28;20554;-61
2022/06/02 01:39:52;;;;;;;9.10;6.50;;;;;;;10.42;70.14;101919.00;5053121;28;20124;-61
2022/06/02 01:42:42;;;;;;;8.30;6.38;;;;;;;10.41;69.67;101927.78;5053095;28;20033;-62
2022/06/02 01:45:22;;;;;;;7.30;5.95;;;;;;;10.32;69.79;101921.31;5053229;28;20432;-61
2022/06/02 01:48:02;;;;;;;8.65;6.03;;;;;;;10.25;70.07;101926.44;5053100;28;20036;-61
2022/06/02 01:50:55;;;;;;;11.63;6.55;;;;;;;10.24;70.01;101927.28;5053120;28;20440;-61
2022/06/02 01:53:46;;;;;;;8.52;6.47;;;;;;;10.17;70.36;101927.03;5053027;28;20029;-61
2022/06/02 01:56:33;;;;;;;9.25;6.22;;;;;;;9.95;71.04;101917.56;5053081;28;20052;-62
2022/06/02 01:59:20;;;;;;;7.07;6.20;;;;;;;9.95;71.01;101917.56;5052952;28;20087;-62
2022/06/02 02:02:10;;;;;;;11.15;6.28;;;;;;;9.97;70.83;101918.47;5052958;28;20029;-61
2022/06/02 02:05:03;;;;;;;8.35;5.93;;;;;;;9.90;70.80;101914.78;5055962;28;20493;-61
2022/06/02 02:07:40;;;;;;;8.00;6.03;;;;;;;9.82;71.76;101921.56;5057162;28;20368;-62
2022/06/02 02:10:26;;;;;;;7.97;5.82;;;;;;;9.82;71.42;101924.19;5057641;28;20040;-61
2022/06/02 02:13:09;;;;;;;7.45;5.88;;;;;;;9.77;71.19;101929.34;5057759;28;20032;-61
2022/06/02 02:15:43;;;;;;;8.65;6.05;;;;;;;9.70;71.22;101927.34;5056925;28;20462;-61
2022/06/02 02:18:25;;;;;;;9.27;6.38;;;;;;;9.63;71.87;101927.09;5056787;28;20025;-61
2022/06/02 02:21:07;;;;;;;8.18;6.47;;;;;;;9.48;73.02;101930.16;5056885;28;20072;-61
2022/06/02 02:23:42;;;;;;;8.18;6.78;;;;;;;9.32;73.19;101939.28;5056829;28;20037;-61
2022/06/02 02:26:20;;;;;;;15.05;6.78;;;;;;;9.26;73.62;101945.28;5056806;28;20026;-61
2022/06/02 02:28:51;;;;;;;9.48;6.70;;;;;;;9.22;74.37;101942.47;5056404;28;20128;-61
2022/06/02 02:31:26;;;;;;;8.93;7.03;;;;;;;9.19;74.20;101939.72;5056670;28;20029;-61
2022/06/02 02:34:18;;;;;;;10.85;7.22;;;;;;;9.15;74.14;101951.00;5056651;28;20079;-62
2022/06/02 02:37:03;;;;;;;10.40;7.40;;;;;;;9.15;74.24;101951.91;5056604;28;20475;-61
2022/06/02 02:39:59;;;;;;;9.57;7.85;;;;;;;9.19;74.45;101940.63;5056481;28;20056;-61
2022/06/02 02:42:41;;;;;;;10.13;7.88;;;;;;;9.26;74.55;101940.00;5056440;28;20029;-61
2022/06/02 02:45:08;;;;;;;10.40;7.78;;;;;;;9.32;73.66;101941.94;5056483;28;20028;-61
2022/06/02 02:47:43;;;;;;;11.07;7.90;;;;;;;9.39;73.61;101946.56;5056283;28;20054;-61
2022/06/02 02:50:21;;;;;;;10.02;7.38;;;;;;;9.41;73.04;101936.97;5056228;28;20021;-61
2022/06/02 02:52:57;;;;;;;9.57;8.18;;;;;;;9.39;72.88;101943.94;5056297;28;20025;-61
2022/06/02 02:55:36;;;;;;;10.18;6.90;;;;;;;9.34;72.69;101949.91;5056408;28;20037;-61
2022/06/02 02:58:17;;;;;;;10.25;7.63;;;;;;;9.27;73.13;101949.69;5056141;28;20082;-61
2022/06/02 03:00:52;;;;;;;10.05;6.63;;;;;;;9.39;72.47;101949.22;5056160;28;20029;-61
2022/06/02 03:03:22;;;;;;;7.60;6.15;;;;;;;9.48;71.89;101953.91;5056106;28;20040;-62
2022/06/02 03:06:00;;;;;;;8.88;6.68;;;;;;;9.50;71.44;101947.81;5038243;28;20033;-62
2022/06/02 03:09:08;;;;;;;9.57;6.82;;;;;;;9.54;71.22;101959.38;5055859;28;20398;-62
2022/06/02 03:11:53;;;;;;;9.45;6.50;;;;;;;9.43;71.85;101955.50;4975071;28;20046;-61
2022/06/02 03:14:36;;;;;;;11.93;7.68;;;;;;;9.46;71.84;101963.50;4974972;28;20504;-61
2022/06/02 03:17:16;;;;;;;13.13;7.60;;;;;;;9.47;71.87;101967.94;4974541;28;20058;-61
2022/06/02 03:20:00;;;;;;;10.32;6.95;;;;;;;9.51;71.32;101964.56;4975000;28;20030;-61
2022/06/02 03:22:37;;;;;;;8.98;7.10;;;;;;;9.47;71.75;101966.19;4974408;28;20038;-61
2022/06/02 03:25:13;;;;;;;11.80;7.30;;;;;;;9.45;71.38;101974.91;4974199;28;20042;-61
2022/06/02 03:27:49;;;;;;;11.48;7.20;;;;;;;9.42;71.23;101975.72;4967315;28;20047;-61
2022/06/02 03:30:17;;;;;;;9.82;6.97;;;;;;;9.34;71.97;101971.03;4954667;29;20093;-61
2022/06/02 03:33:21;;;;;;;10.43;7.63;;;;;;;9.35;71.57;101976.34;4954761;29;20070;-61
2022/06/02 03:36:21;;;;;;;12.02;8.48;;;;;;;9.19;72.88;101984.56;4925872;29;20038;-61
2022/06/02 03:39:02;;;;;;;15.18;8.50;;;;;;;9.06;73.39;101980.59;4954423;29;20035;-61
2022/06/02 03:42:05;;;;;;;10.95;7.85;;;;;;;9.04;73.03;101990.22;4954696;29;20047;-61
2022/06/02 03:44:30;;;;;;;10.52;8.02;;;;;;;9.00;73.73;101989.19;4954430;29;20421;-61
2022/06/02 03:46:59;;;;;;;10.52;8.88;;;;;;;8.96;73.80;101995.19;4993004;28;20143;-61
2022/06/02 03:49:29;;;;;;;12.25;8.82;;;;;;;8.95;73.97;101995.13;5034448;28;20484;-61
2022/06/02 03:51:54;;;;;;;12.63;8.65;;;;;;;8.93;73.87;101996.81;5034677;28;20018;-61
2022/06/02 03:54:43;;;;;;;10.43;8.50;;;;;;;8.91;73.99;101998.53;5034422;28;20405;-61
2022/06/02 03:57:20;;;;;;;13.00;9.15;;;;;;;8.81;74.19;101999.91;5034813;28;20106;-61
2022/06/02 03:59:56;;;;;;;12.48;9.15;;;;;;;8.77;75.62;102009.44;5016546;28;20120;-61
2022/06/02 04:02:31;;;;;;;17.25;10.00;;;;;;;8.81;75.38;102005.19;5034555;28;20144;-62
2022/06/02 04:05:17;;;;;;;17.55;9.90;;;;;;;8.87;75.08;102010.69;5034517;28;20033;-62
2022/06/02 04:08:13;;;;;;;14.02;9.77;;;;;;;8.96;74.81;102012.75;5034405;28;20030;-61
2022/06/02 04:11:23;;;;;;;14.75;9.65;;;;;;;9.01;74.70;102008.53;5034050;28;20029;-61
2022/06/02 04:14:11;;;;;;;16.67;9.98;;;;;;;9.08;74.86;102013.22;5034271;28;20041;-61
2022/06/02 04:17:01;;;;;;;12.48;9.02;;;;;;;9.21;75.14;102012.78;5033995;28;20053;-61
2022/06/02 04:22:49;;;;;;;14.55;10.57;;;;;;;9.42;73.80;102017.91;5034086;28;20032;-61
2022/06/02 04:25:17;;;;;;;13.35;10.27;;;;;;;9.47;74.08;102013.69;5033965;28;20049;-61
2022/06/02 04:28:01;;;;;;;14.05;10.00;;;;;;;9.58;73.16;102021.06;5041095;28;20115;-61
2022/06/02 04:30:44;;;;;;;12.50;8.55;;;;;;;9.55;73.42;102021.88;5053592;28;20530;-61
2022/06/02 04:33:21;;;;;;;9.68;8.23;;;;;;;9.54;73.25;102020.94;5053877;28;20436;-61
2022/06/02 04:36:08;;;;;;;13.45;10.57;;;;;;;9.52;74.19;102014.72;5053780;28;20032;-61
2022/06/02 04:38:41;;;;;;;15.63;11.45;;;;;;;9.51;75.38;102025.25;5053423;28;20091;-62
2022/06/02 04:41:40;;;;;;;17.08;12.25;;;;;;;9.59;75.20;102021.09;5053715;28;20052;-61
2022/06/02 04:44:37;;;;;;;17.50;12.73;;;;;;;9.65;76.15;102023.97;5053501;28;20032;-62
2022/06/02 04:47:03;;;;;;;21.30;13.13;;;;;;;9.70;75.85;102030.28;5053450;28;20033;-62
2022/06/02 04:49:40;;;;;;;22.63;13.27;;;;;;;9.74;76.19;102036.56;5053283;28;20032;-62
2022/06/02 04:52:15;;;;;;;21.90;14.60;;;;;;;9.79;76.26;102030.56;5053492;28;20489;-61
2022/06/02 04:54:44;;;;;;;17.77;13.48;;;;;;;9.81;76.50;102042.94;5053190;28;20028;-61
2022/06/02 04:57:48;;;;;;;22.85;15.05;;;;;;;9.87;76.81;102041.41;5053369;28;20056;-62
2022/06/02 05:00:28;;;;;;;;;;;;;;;10.10;75.46;102042.13;5040058;28;20147;-61
2022/06/02 05:03:19;;;;;;;20.52;15.07;;;;;;;10.12;75.90;102045.72;5053476;28;20297;-61
2022/06/02 05:06:16;;;;;;;18.88;14.18;;;;;;;10.21;76.19;102050.41;5052884;28;20024;-61
2022/06/02 05:08:53;;;;;;;24.15;16.13;;;;;;;10.34;75.67;102049.09;5053252;28;20081;-61
2022/06/02 05:11:42;;;;;;;20.48;15.63;;;;;;;10.47;76.18;102048.59;5052879;28;20035;-61
2022/06/02 05:14:20;;;;;;;24.52;17.35;;;;;;;10.61;76.41;102041.09;5053004;28;20032;-61
2022/06/02 05:17:23;;;;;;;21.83;15.20;;;;;;;10.84;74.92;102047.06;5053061;28;20029;-61
2022/06/02 05:20:37;;;;;;;19.98;15.57;;;;;;;11.11;74.05;102050.47;5053055;28;20032;-61
2022/06/02 05:23:40;;;;;;;23.02;16.38;;;;;;;11.33;73.88;102045.78;5046362;28;20066;-61
2022/06/02 05:26:50;;;;;;;22.70;17.45;;;;;;;11.49;73.74;102050.63;5052644;28;20029;-61
2022/06/02 05:29:38;;;;;;;26.67;17.55;;;;;;;11.70;73.54;102059.13;5052653;28;20402;-62
2022/06/02 05:32:18;;;;;;;29.10;17.83;;;;;;;11.91;73.07;102053.50;4991110;28;20086;-61
2022/06/02 05:35:11;;;;;;;23.35;17.35;;;;;;;12.11;73.27;102048.66;4991350;28;20050;-62
2022/06/02 05:38:00;;;;;;;27.23;18.52;;;;;;;12.21;73.23;102048.03;4990890;28;20073;-61
2022/06/02 05:40:38;;;;;;;24.98;19.27;;;;;;;12.39;73.55;102049.31;4991346;28;20034;-61
2022/06/02 05:43:19;;;;;;;23.20;17.73;;;;;;;12.51;73.24;102039.00;4991006;28;20042;-62
2022/06/02 05:46:10;;;;;;;21.02;17.48;;;;;;;12.70;72.70;102045.56;4991163;28;20066;-61
2022/06/02 05:48:50;;;;;;;22.73;17.20;;;;;;;12.91;72.87;102053.97;4990800;28;20034;-62
2022/06/02 05:51:32;;;;;;;22.05;17.85;;;;;;;13.09;74.36;102047.25;4991125;28;20061;-62
2022/06/02 05:54:16;;;;;;;19.50;15.90;;;;;;;13.32;73.05;102048.63;4990991;28;20109;-61
2022/06/02 05:57:20;;;;;;;21.05;16.17;;;;;;;13.43;72.04;102052.38;4990993;28;20512;-61
2022/06/02 05:59:45;;;;;;;20.38;15.73;;;;;;;13.53;71.66;102050.75;4990935;28;20069;-62
2022/06/02 06:02:37;;;;;;;20.33;16.48;;;;;;;13.66;72.09;102058.13;4991029;28;20073;-61
2022/06/02 06:05:06;;;;;;;18.73;15.18;;;;;;;13.82;71.83;102061.91;4990840;28;20560;-62
2022/06/02 06:08:11;;;;;;;19.27;16.40;;;;;;;13.97;71.42;102055.97;4991060;28;20034;-62
2022/06/02 06:10:49;;;;;;;20.60;16.48;;;;;;;14.15;71.22;102068.66;5051907;28;20033;-62
2022/06/02 06:13:44;;;;;;;19.85;15.48;;;;;;;14.32;69.92;102067.13;5051979;28;20037;-61
2022/06/02 06:16:21;;;;;;;18.67;14.02;;;;;;;14.53;69.37;102067.47;4990630;28;20149;-61
2022/06/02 06:19:34;;;;;;;20.23;14.15;;;;;;;14.72;69.31;102073.94;4991114;28;20049;-61
2022/06/02 06:22:03;;;;;;;17.73;13.95;;;;;;;14.92;67.74;102078.63;4990831;28;20042;-62
2022/06/02 06:25:02;;;;;;;21.60;13.93;;;;;;;15.11;68.50;102079.75;4990671;28;20041;-62
2022/06/02 06:28:05;;;;;;;15.88;12.45;;;;;;;15.37;66.53;102082.69;4990681;28;20097;-61
2022/06/02 06:30:57;;;;;;;15.52;12.73;;;;;;;15.67;65.97;102084.81;4990696;28;20038;-61
2022/06/02 06:33:33;;;;;;;17.88;13.00;;;;;;;15.82;65.13;102089.41;4990965;28;20038;-61
2022/06/02 06:36:13;;;;;;;13.68;11.23;;;;;;;15.93;63.82;102093.97;4990586;28;20026;-61
2022/06/02 06:38:47;;;;;;;15.13;11.48;;;;;;;16.12;63.39;102092.34;4990578;28;20042;-61
2022/06/02 06:41:36;;;;;;;11.25;9.07;;;;;;;16.28;61.72;102091.56;4990687;28;20038;-61
2022/06/02 06:44:18;;;;;;;11.52;9.82;;;;;;;16.38;61.85;102096.97;4990835;28;20030;-61
2022/06/02 06:47:06;;;;;;;12.50;9.00;;;;;;;16.53;62.05;102095.31;4990431;28;20154;-62
2022/06/02 06:49:40;;;;;;;11.13;8.65;;;;;;;16.72;60.07;102100.75;4990586;28;20526;-61
2022/06/02 06:52:40;;;;;;;12.77;10.55;;;;;;;16.89;59.73;102099.09;4997273;28;20093;-61
2022/06/02 06:55:27;;;;;;;9.98;8.43;;;;;;;17.06;59.01;102103.59;5055570;28;20033;-63
2022/06/02 06:58:10;;;;;;;11.75;8.70;;;;;;;17.09;58.61;102092.94;5055703;28;20029;-61
2022/06/02 07:01:17;;;;;;;16.92;8.57;;;;;;;17.31;58.66;102102.81;5055617;28;20532;-62
2022/06/02 07:03:59;;;;;;;11.52;8.30;;;;;;;17.43;58.56;102107.28;5055365;28;20025;-61
2022/06/02 07:06:48;;;;;;;;;;;;;;;17.70;59.26;102106.47;5055963;28;20021;-61
2022/06/02 07:09:22;;;;;;;10.55;7.95;;;;;;;17.80;56.87;102105.59;5054878;28;19920;-61
2022/06/02 07:15:23;;;;;;;11.73;8.27;;;;;;;17.79;56.30;102109.19;5055346;28;20036;-61
2022/06/02 07:17:55;;;;;;;8.88;7.60;;;;;;;17.73;54.77;102118.06;5055348;28;20166;-61
2022/06/02 07:20:38;;;;;;;;;;;;;;;17.81;56.67;102120.75;5055602;28;20090;-61
2022/06/02 07:23:20;;;;;;;10.25;8.30;;;;;;;17.58;55.60;102112.66;5055118;28;19924;-61
2022/06/02 07:26:06;;;;;;;10.32;8.23;;;;;;;17.78;55.74;102120.78;5055170;28;20430;-60
2022/06/02 07:28:50;;;;;;;10.80;7.68;;;;;;;17.78;54.91;102126.13;5055082;28;20489;-61
2022/06/02 07:31:29;;;;;;;8.90;7.43;;;;;;;18.02;53.29;102126.13;5054947;28;20037;-61
2022/06/02 07:34:40;;;;;;;9.73;7.15;;;;;;;18.52;54.10;102135.03;5054992;28;20128;-61
2022/06/02 07:37:33;;;;;;;9.98;6.80;;;;;;;18.23;52.02;102135.94;5017993;28;20125;-62
2022/06/02 07:40:25;;;;;;;8.65;7.25;;;;;;;18.36;53.10;102139.50;5054871;28;20033;-61
2022/06/02 07:43:16;;;;;;;9.85;7.30;;;;;;;18.56;53.25;102136.81;5054564;28;20036;-61
2022/06/02 07:45:44;;;;;;;9.40;7.70;;;;;;;18.58;52.46;102135.00;5054734;28;20538;-61
2022/06/02 07:48:22;;;;;;;9.38;7.90;;;;;;;18.79;51.92;102135.88;5054714;28;20104;-61
2022/06/02 07:51:18;;;;;;;10.65;8.05;;;;;;;19.34;52.16;102133.00;5054635;28;20029;-61
2022/06/02 07:54:08;;;;;;;9.45;7.05;;;;;;;19.62;49.87;102137.38;4973722;28;20047;-61
2022/06/02 07:56:42;;;;;;;8.05;6.60;;;;;;;19.82;46.90;102129.16;4973767;28;20502;-61
2022/06/02 07:59:40;;;;;;;8.48;7.00;;;;;;;20.00;48.37;102137.09;4973908;28;20496;-61
2022/06/02 08:02:43;;;;;;;8.52;6.07;;;;;;;19.79;47.65;102139.94;4973332;28;20126;-61
2022/06/02 08:05:27;;;;;;;9.80;7.00;;;;;;;19.47;49.57;102137.41;4973557;28;20125;-61
2022/06/02 08:08:02;;;;;;;8.27;6.95;;;;;;;19.55;46.87;102132.91;4973647;28;20042;-61
2022/06/02 08:10:52;;;;;;;9.93;6.82;;;;;;;19.81;47.57;102130.06;4973332;28;20047;-61
2022/06/02 08:13:23;;;;;;;8.63;7.00;;;;;;;19.63;47.24;102135.56;4973516;28;20042;-61
2022/06/02 08:16:01;;;;;;;7.47;6.17;;;;;;;19.55;47.13;102129.31;4973417;28;20492;-61
2022/06/02 08:18:38;;;;;;;7.35;6.20;;;;;;;19.82;46.70;102130.97;4972961;28;20039;-61
2022/06/02 08:21:15;;;;;;;8.48;6.65;;;;;;;20.13;46.05;102128.97;4973360;28;20071;-61
2022/06/02 08:24:07;;;;;;;9.45;7.43;;;;;;;20.38;46.94;102132.28;4973043;28;20583;-61
2022/06/02 08:26:44;;;;;;;7.65;6.43;;;;;;;20.45;45.18;102132.22;4957002;28;20121;-61
2022/06/02 08:29:25;;;;;;;8.00;5.63;;;;;;;20.70;43.15;102126.66;4991769;28;20554;-61
2022/06/02 08:32:17;;;;;;;8.30;6.07;;;;;;;20.87;44.52;102116.59;5053746;28;20025;-61
2022/06/02 08:34:48;;;;;;;6.78;5.88;;;;;;;21.17;43.18;102118.03;5053956;28;20028;-61
2022/06/02 08:37:37;;;;;;;7.88;6.35;;;;;;;21.38;42.88;102121.38;5053774;28;20035;-61
2022/06/02 08:40:40;;;;;;;8.80;5.93;;;;;;;21.53;42.82;102139.97;5053885;28;20032;-61
2022/06/02 08:43:36;;;;;;;6.75;5.35;;;;;;;21.77;41.48;102141.41;5053858;28;20116;-61
2022/06/02 08:46:28;;;;;;;6.80;5.90;;;;;;;22.10;42.50;102134.63;5053700;28;20040;-61
2022/06/02 08:49:27;;;;;;;6.35;5.60;;;;;;;21.93;41.92;102142.09;5053629;28;20112;-61
2022/06/02 08:52:14;;;;;;;8.05;6.20;;;;;;;22.03;40.07;102142.81;5053612;28;20493;-62
2022/06/02 08:55:19;;;;;;;7.35;6.30;;;;;;;22.30;40.53;102136.09;5053590;28;20036;-61
2022/06/02 08:58:02;;;;;;;7.18;6.13;;;;;;;22.62;40.43;102133.72;5053713;28;20033;-61
2022/06/02 09:00:53;;;;;;;8.20;5.38;;;;;;;22.89;38.20;102142.19;5053458;28;20025;-61
2022/06/02 09:03:53;;;;;;;6.68;5.35;;;;;;;23.22;38.33;102138.84;5053301;28;20063;-61
2022/06/02 09:06:40;;;;;;;9.18;5.75;;;;;;;23.29;35.65;102136.00;5053419;28;20028;-62
2022/06/02 09:09:05;;;;;;;7.00;5.70;;;;;;;23.31;34.82;102137.75;5053163;28;20462;-62
2022/06/02 09:12:22;;;;;;;5.90;5.23;;;;;;;23.11;37.11;102130.09;5053374;28;20029;-61
2022/06/02 09:15:27;;;;;;;6.32;5.35;;;;;;;23.19;37.69;102128.13;4991223;28;20313;-61
2022/06/02 09:18:15;;;;;;;7.85;5.57;;;;;;;23.45;37.85;102132.06;4991728;28;20038;-62
2022/06/02 09:21:06;;;;;;;8.07;5.53;;;;;;;23.57;37.96;102130.91;4991705;28;20034;-61
2022/06/02 09:24:00;;;;;;;7.72;5.60;;;;;;;23.59;37.98;102131.72;4991599;28;20030;-61
2022/06/02 09:26:44;;;;;;;9.55;5.55;;;;;;;23.61;37.33;102130.78;4991463;28;20558;-61
2022/06/02 09:29:18;;;;;;;10.80;5.80;;;;;;;23.43;37.41;102126.69;4991443;28;20108;-61
2022/06/02 09:32:09;;;;;;;11.38;4.90;;;;;;;23.77;35.88;102134.06;4991534;28;20455;-62
2022/06/02 09:34:58;;;;;;;12.73;5.05;;;;;;;23.82;35.46;102132.13;4990987;28;20129;-61
2022/06/02 09:37:44;;;;;;;6.32;4.38;;;;;;;23.37;36.77;102124.13;4991556;28;20570;-61
2022/06/02 09:40:47;;;;;;;6.63;5.07;;;;;;;23.41;35.91;102124.94;4991386;28;20438;-61
2022/06/02 09:43:36;;;;;;;8.77;4.90;;;;;;;23.56;36.43;102130.00;4988370;28;20504;-61
2022/06/02 09:46:21;;;;;;;7.93;4.80;;;;;;;23.86;34.66;102120.34;4991563;28;20100;-61
2022/06/02 09:49:16;;;;;;;9.50;4.60;;;;;;;24.02;36.49;102123.53;4991240;28;20072;-61
2022/06/02 09:52:17;;;;;;;6.75;4.88;;;;;;;24.19;34.16;102125.81;5052508;28;20033;-62
2022/06/02 09:55:22;;;;;;;5.47;4.70;;;;;;;24.07;33.58;102126.09;4991210;28;20030;-61
2022/06/02 09:58:05;;;;;;;6.53;5.80;;;;;;;23.89;32.78;102125.63;5052688;28;20039;-62
2022/06/02 10:00:56;;;;;;;6.22;5.40;;;;;;;23.69;34.65;102128.84;5052683;28;20425;-61
2022/06/02 10:03:42;;;;;;;14.32;5.20;;;;;;;23.81;34.37;102116.88;5052429;28;20035;-61
2022/06/02 10:06:29;;;;;;;6.43;5.20;;;;;;;24.08;34.18;102117.09;5052548;28;20017;-61
2022/06/02 10:09:06;;;;;;;8.20;5.53;;;;;;;24.22;32.76;102118.50;5052412;28;20442;-61
2022/06/02 10:12:54;;;;;;;11.13;5.35;;;;;;;24.10;35.55;102121.53;5052419;28;20037;-61
2022/06/02 10:15:27;;;;;;;16.95;5.50;;;;;;;24.56;35.34;102120.34;5052257;28;20048;-61
2022/06/02 10:18:18;;;;;;;6.45;5.05;;;;;;;24.82;33.50;102121.44;5052312;28;20040;-61
2022/06/02 10:21:06;;;;;;;7.13;5.90;;;;;;;24.83;33.41;102116.00;5052657;28;20076;-61
2022/06/02 10:24:00;;;;;;;11.15;5.32;;;;;;;25.03;34.12;102111.84;5052206;28;20033;-62
2022/06/02 10:26:40;;;;;;;6.05;5.03;;;;;;;25.06;30.28;102109.06;4994724;28;20130;-61
2022/06/02 10:29:21;;;;;;;8.23;5.20;;;;;;;24.99;31.59;102100.22;4994710;28;20159;-61
2022/06/02 10:32:28;;;;;;;7.03;5.00;;;;;;;25.17;32.20;102107.81;4994847;28;20035;-61
2022/06/02 10:35:30;;;;;;;6.57;5.18;;;;;;;25.17;33.08;102107.81;4994882;28;20030;-61
2022/06/02 10:38:17;;;;;;;6.40;5.53;;;;;;;25.10;32.44;102108.06;4994560;28;20050;-61
2022/06/02 10:41:07;;;;;;;6.43;5.80;;;;;;;24.92;31.89;102110.34;4994449;28;20054;-61
2022/06/02 10:43:56;;;;;;;6.57;5.88;;;;;;;24.96;30.94;102109.28;4994686;28;20121;-61
2022/06/02 10:46:41;;;;;;;7.13;5.40;;;;;;;25.27;32.65;102103.03;4994440;28;20089;-61
2022/06/02 10:49:44;;;;;;;6.05;5.28;;;;;;;25.35;32.63;102087.44;4994549;28;20041;-62
2022/06/02 10:52:56;;;;;;;6.78;5.10;;;;;;;25.65;30.51;102092.78;4994388;28;20034;-62
2022/06/02 10:55:55;;;;;;;5.35;4.60;;;;;;;25.56;29.66;102098.50;4936215;29;20126;-61
2022/06/02 10:58:36;;;;;;;7.75;4.57;;;;;;;25.42;29.77;102093.53;4936550;29;20066;-61
2022/06/02 11:01:35;;;;;;;5.93;5.10;;;;;;;25.53;30.06;102093.22;4936249;29;20556;-61
2022/06/02 11:04:24;;;;;;;5.70;5.05;;;;;;;25.71;30.83;102085.38;4981167;28;20046;-61
2022/06/02 11:07:13;;;;;;;6.20;5.57;;;;;;;25.95;30.30;102088.22;4994274;28;20538;-61
2022/06/02 11:10:07;;;;;;;5.95;5.32;;;;;;;26.15;30.32;102084.84;4994148;28;20504;-62
2022/06/02 11:12:48;;;;;;;6.32;5.50;;;;;;;25.65;31.85;102085.59;4994133;28;20101;-61
2022/06/02 11:15:47;;;;;;;6.85;5.78;;;;;;;25.30;32.53;102083.09;4994189;28;20049;-61
2022/06/02 11:18:52;;;;;;;7.45;6.45;;;;;;;25.10;32.93;102081.91;4993986;28;20054;-62
2022/06/02 11:21:42;;;;;;;8.02;5.68;;;;;;;25.03;31.62;102082.97;4994059;28;20156;-61
2022/06/02 11:24:51;;;;;;;7.18;6.47;;;;;;;25.17;31.90;102075.34;4993706;28;20399;-62
2022/06/02 11:27:45;;;;;;;9.45;6.18;;;;;;;25.02;32.42;102083.91;5055193;28;20127;-61
2022/06/02 11:30:29;;;;;;;9.80;6.50;;;;;;;24.65;31.36;102075.97;5055002;28;20104;-62
2022/06/02 11:33:34;;;;;;;8.32;6.57;;;;;;;24.76;33.10;102075.69;5055535;28;20056;-62
2022/06/02 11:36:55;;;;;;;12.70;5.88;;;;;;;24.80;33.04;102074.66;5054576;28;20033;-61
2022/06/02 11:39:43;;;;;;;11.10;6.10;;;;;;;24.73;33.87;102071.22;5037132;28;20436;-61
2022/06/02 11:42:42;;;;;;;5.95;5.35;;;;;;;24.97;31.13;102078.63;5055062;28;20029;-61
2022/06/02 11:45:36;;;;;;;5.88;5.10;;;;;;;25.09;29.70;102071.09;5054779;28;20076;-62
2022/06/02 11:48:02;;;;;;;5.18;4.47;;;;;;;25.55;30.44;102064.25;5024157;28;20123;-61
2022/06/02 11:50:56;;;;;;;5.03;4.50;;;;;;;25.74;31.16;102060.03;5054796;28;20112;-62
2022/06/02 11:53:49;;;;;;;4.60;3.97;;;;;;;25.88;28.43;102060.47;5052390;28;20306;-62
2022/06/02 11:56:30;;;;;;;5.10;4.60;;;;;;;26.05;28.94;102054.47;5036755;28;20079;-62
2022/06/02 11:59:25;;;;;;;6.13;4.82;;;;;;;26.00;29.66;102052.88;5054937;28;20390;-61
2022/06/02 12:02:09;;;;;;;5.88;4.93;;;;;;;25.60;29.04;102051.44;5054417;28;20482;-62
2022/06/02 12:04:46;;;;;;;7.57;5.47;;;;;;;25.29;31.50;102046.16;5054731;28;20398;-62
2022/06/02 12:07:14;;;;;;;6.28;5.68;;;;;;;25.37;31.09;102035.97;5054419;28;20390;-62
2022/06/02 12:10:29;;;;;;;6.57;5.40;;;;;;;25.56;29.49;102034.41;5054497;28;20025;-61
2022/06/02 12:13:02;;;;;;;6.65;5.18;;;;;;;25.76;30.12;102038.31;4954194;29;20417;-61
2022/06/02 12:15:51;;;;;;;6.22;4.72;;;;;;;26.09;29.01;102039.88;4954303;29;20517;-62
2022/06/02 12:18:54;;;;;;;9.40;5.38;;;;;;;26.16;28.35;102035.13;4954181;29;20163;-61
2022/06/02 12:21:40;;;;;;;7.07;4.93;;;;;;;26.12;29.65;102026.25;4954274;29;20139;-61
2022/06/02 12:24:32;;;;;;;7.22;4.50;;;;;;;26.47;28.32;102018.69;4954113;29;20070;-61
2022/06/02 12:27:06;;;;;;;7.87;4.80;;;;;;;26.65;28.92;102015.28;4939221;29;20432;-62
2022/06/02 12:29:50;;;;;;;7.88;5.10;;;;;;;26.85;30.05;102019.03;4953951;28;20039;-62
2022/06/02 12:32:45;;;;;;;8.25;5.20;;;;;;;26.88;26.42;102013.50;4953970;29;20050;-62
2022/06/02 12:35:27;;;;;;;8.10;4.70;;;;;;;26.71;26.64;102009.63;4954003;29;20031;-62
2022/06/02 12:38:11;;;;;;;5.82;4.70;;;;;;;26.71;28.20;102006.91;4953966;29;20090;-62
2022/06/02 12:40:42;;;;;;;5.10;4.60;;;;;;;26.80;27.10;102010.22;4953806;29;20117;-62
2022/06/02 12:43:39;;;;;;;6.97;4.60;;;;;;;26.56;26.77;102010.22;4953857;29;20540;-62
2022/06/02 12:46:23;;;;;;;4.70;4.18;;;;;;;26.52;28.61;102011.28;4953779;29;20058;-62
2022/06/02 12:48:51;;;;;;;5.38;4.72;;;;;;;26.44;26.46;102002.53;4981673;28;20091;-62
2022/06/02 12:51:54;;;;;;;5.43;4.65;;;;;;;26.76;28.15;102004.00;5053871;28;20133;-61
2022/06/02 12:54:35;;;;;;;7.63;6.13;;;;;;;26.67;26.86;101991.69;4972731;28;20076;-62
2022/06/02 12:57:54;;;;;;;6.22;5.63;;;;;;;26.70;28.88;101988.88;4972798;28;20046;-62
2022/06/02 13:00:32;;;;;;;7.07;4.88;;;;;;;26.87;28.63;101990.94;4915143;29;20405;-62
2022/06/02 13:03:22;;;;;;;7.82;5.32;;;;;;;26.71;28.24;101996.06;4965410;28;20051;-62